sensor_id;sensor_type;location;lat;lon;timestamp;P1;durP1;ratioP1;P2;durP2;ratioP2
42978;SDS011;28616;44.746;19.678;2022-11-15T00:01:54;528.72;;;129.40;;
42978;SDS011;28616;44.746;19.678;2022-11-15T00:04:20;486.75;;;128.38;;
42978;SDS011;28616;44.746;19.678;2022-11-15T00:06:46;509.30;;;124.47;;
42978;SDS011;28616;44.746;19.678;2022-11-15T00:09:11;529.25;;;125.35;;
42978;SDS011;28616;44.746;19.678;2022-11-15T00:11:37;533.53;;;126.20;;
42978;SDS011;28616;44.746;19.678;2022-11-15T00:14:03;553.20;;;128.73;;
42978;SDS011;28616;44.746;19.678;2022-11-15T00:16:29;507.52;;;126.85;;
42978;SDS011;28616;44.746;19.678;2022-11-15T00:18:54;552.30;;;131.43;;
42978;SDS011;28616;44.746;19.678;2022-11-15T00:21:22;567.78;;;130.55;;
42978;SDS011;28616;44.746;19.678;2022-11-15T00:23:48;563.00;;;128.93;;
42978;SDS011;28616;44.746;19.678;2022-11-15T00:26:14;538.63;;;126.53;;
42978;SDS011;28616;44.746;19.678;2022-11-15T00:28:40;531.63;;;128.35;;
42978;SDS011;28616;44.746;19.678;2022-11-15T00:31:09;531.60;;;123.68;;
42978;SDS011;28616;44.746;19.678;2022-11-15T00:33:39;474.40;;;122.40;;
42978;SDS011;28616;44.746;19.678;2022-11-15T00:36:08;490.92;;;117.13;;
42978;SDS011;28616;44.746;19.678;2022-11-15T00:38:36;520.70;;;126.47;;
42978;SDS011;28616;44.746;19.678;2022-11-15T00:41:03;553.08;;;130.65;;
42978;SDS011;28616;44.746;19.678;2022-11-15T00:43:30;581.80;;;124.90;;
42978;SDS011;28616;44.746;19.678;2022-11-15T00:45:56;609.03;;;128.25;;
42978;SDS011;28616;44.746;19.678;2022-11-15T00:48:22;552.08;;;119.32;;
42978;SDS011;28616;44.746;19.678;2022-11-15T00:50:48;550.00;;;123.03;;
42978;SDS011;28616;44.746;19.678;2022-11-15T00:53:15;555.60;;;122.53;;
42978;SDS011;28616;44.746;19.678;2022-11-15T00:55:41;515.17;;;119.05;;
42978;SDS011;28616;44.746;19.678;2022-11-15T00:58:07;490.52;;;114.90;;
42978;SDS011;28616;44.746;19.678;2022-11-15T01:00:33;498.83;;;116.00;;
42978;SDS011;28616;44.746;19.678;2022-11-15T01:02:59;509.98;;;117.85;;
42978;SDS011;28616;44.746;19.678;2022-11-15T01:05:26;506.20;;;117.50;;
42978;SDS011;28616;44.746;19.678;2022-11-15T01:07:53;527.75;;;115.95;;
42978;SDS011;28616;44.746;19.678;2022-11-15T01:10:22;464.13;;;107.88;;
42978;SDS011;28616;44.746;19.678;2022-11-15T01:12:49;455.70;;;110.72;;
42978;SDS011;28616;44.746;19.678;2022-11-15T01:15:15;450.45;;;107.97;;
42978;SDS011;28616;44.746;19.678;2022-11-15T01:17:41;441.10;;;112.97;;
42978;SDS011;28616;44.746;19.678;2022-11-15T01:20:07;431.88;;;108.38;;
42978;SDS011;28616;44.746;19.678;2022-11-15T01:22:33;464.63;;;106.50;;
42978;SDS011;28616;44.746;19.678;2022-11-15T01:24:59;405.65;;;106.57;;
42978;SDS011;28616;44.746;19.678;2022-11-15T01:27:25;479.73;;;112.28;;
42978;SDS011;28616;44.746;19.678;2022-11-15T01:29:51;507.85;;;113.32;;
42978;SDS011;28616;44.746;19.678;2022-11-15T01:32:17;456.83;;;108.13;;
42978;SDS011;28616;44.746;19.678;2022-11-15T01:34:42;491.27;;;106.65;;
42978;SDS011;28616;44.746;19.678;2022-11-15T01:37:08;512.35;;;112.63;;
42978;SDS011;28616;44.746;19.678;2022-11-15T01:39:34;501.30;;;110.15;;
42978;SDS011;28616;44.746;19.678;2022-11-15T01:42:00;516.00;;;106.90;;
42978;SDS011;28616;44.746;19.678;2022-11-15T01:44:46;439.65;;;107.80;;
42978;SDS011;28616;44.746;19.678;2022-11-15T01:47:28;428.10;;;102.68;;
42978;SDS011;28616;44.746;19.678;2022-11-15T01:50:10;310.58;;;77.30;;
42978;SDS011;28616;44.746;19.678;2022-11-15T01:52:39;549.22;;;111.40;;
42978;SDS011;28616;44.746;19.678;2022-11-15T01:55:22;434.13;;;105.40;;
42978;SDS011;28616;44.746;19.678;2022-11-15T01:57:52;433.90;;;105.90;;
42978;SDS011;28616;44.746;19.678;2022-11-15T02:00:22;414.92;;;102.20;;
42978;SDS011;28616;44.746;19.678;2022-11-15T02:02:48;438.67;;;104.60;;
42978;SDS011;28616;44.746;19.678;2022-11-15T02:05:13;461.13;;;100.38;;
42978;SDS011;28616;44.746;19.678;2022-11-15T02:07:40;408.52;;;99.28;;
42978;SDS011;28616;44.746;19.678;2022-11-15T02:10:07;406.63;;;100.40;;
42978;SDS011;28616;44.746;19.678;2022-11-15T02:12:38;428.02;;;98.68;;
42978;SDS011;28616;44.746;19.678;2022-11-15T02:15:04;417.15;;;100.00;;
42978;SDS011;28616;44.746;19.678;2022-11-15T02:31:09;413.27;;;96.22;;
42978;SDS011;28616;44.746;19.678;2022-11-15T02:33:47;414.15;;;96.00;;
42978;SDS011;28616;44.746;19.678;2022-11-15T02:39:07;355.98;;;87.93;;
42978;SDS011;28616;44.746;19.678;2022-11-15T02:42:02;388.40;;;92.38;;
42978;SDS011;28616;44.746;19.678;2022-11-15T02:44:56;365.60;;;93.22;;
42978;SDS011;28616;44.746;19.678;2022-11-15T02:47:27;368.80;;;98.32;;
42978;SDS011;28616;44.746;19.678;2022-11-15T02:49:57;485.33;;;102.47;;
42978;SDS011;28616;44.746;19.678;2022-11-15T02:52:25;382.30;;;96.65;;
42978;SDS011;28616;44.746;19.678;2022-11-15T02:54:53;388.25;;;97.30;;
42978;SDS011;28616;44.746;19.678;2022-11-15T02:57:21;394.05;;;98.78;;
42978;SDS011;28616;44.746;19.678;2022-11-15T03:05:28;408.75;;;108.18;;
42978;SDS011;28616;44.746;19.678;2022-11-15T03:08:10;391.63;;;99.82;;
42978;SDS011;28616;44.746;19.678;2022-11-15T03:16:03;408.17;;;116.10;;
42978;SDS011;28616;44.746;19.678;2022-11-15T03:18:40;401.77;;;117.80;;
42978;SDS011;28616;44.746;19.678;2022-11-15T03:21:09;434.08;;;122.40;;
42978;SDS011;28616;44.746;19.678;2022-11-15T03:23:37;369.70;;;101.82;;
42978;SDS011;28616;44.746;19.678;2022-11-15T03:26:05;391.55;;;109.45;;
42978;SDS011;28616;44.746;19.678;2022-11-15T03:28:38;493.23;;;131.88;;
42978;SDS011;28616;44.746;19.678;2022-11-15T03:31:07;472.40;;;129.70;;
42978;SDS011;28616;44.746;19.678;2022-11-15T03:33:55;369.65;;;100.00;;
42978;SDS011;28616;44.746;19.678;2022-11-15T03:36:23;379.02;;;99.75;;
42978;SDS011;28616;44.746;19.678;2022-11-15T03:38:52;383.58;;;106.88;;
42978;SDS011;28616;44.746;19.678;2022-11-15T03:41:27;550.47;;;162.48;;
42978;SDS011;28616;44.746;19.678;2022-11-15T03:46:58;378.45;;;101.97;;
42978;SDS011;28616;44.746;19.678;2022-11-15T03:49:35;335.55;;;95.18;;
42978;SDS011;28616;44.746;19.678;2022-11-15T03:54:29;357.58;;;111.35;;
42978;SDS011;28616;44.746;19.678;2022-11-15T03:56:55;323.98;;;96.45;;
42978;SDS011;28616;44.746;19.678;2022-11-15T03:59:22;338.60;;;94.75;;
42978;SDS011;28616;44.746;19.678;2022-11-15T04:01:47;327.70;;;98.10;;
42978;SDS011;28616;44.746;19.678;2022-11-15T04:04:13;312.25;;;95.05;;
42978;SDS011;28616;44.746;19.678;2022-11-15T04:06:39;287.58;;;93.85;;
42978;SDS011;28616;44.746;19.678;2022-11-15T04:09:05;322.60;;;100.43;;
42978;SDS011;28616;44.746;19.678;2022-11-15T04:11:30;306.42;;;97.93;;
42978;SDS011;28616;44.746;19.678;2022-11-15T04:13:56;321.85;;;95.75;;
42978;SDS011;28616;44.746;19.678;2022-11-15T04:16:22;296.25;;;92.13;;
42978;SDS011;28616;44.746;19.678;2022-11-15T04:18:48;287.30;;;87.65;;
42978;SDS011;28616;44.746;19.678;2022-11-15T04:21:33;282.77;;;88.50;;
42978;SDS011;28616;44.746;19.678;2022-11-15T04:24:17;273.33;;;84.93;;
42978;SDS011;28616;44.746;19.678;2022-11-15T04:26:43;293.20;;;89.60;;
42978;SDS011;28616;44.746;19.678;2022-11-15T04:29:09;291.38;;;89.35;;
42978;SDS011;28616;44.746;19.678;2022-11-15T04:31:53;332.48;;;95.07;;
42978;SDS011;28616;44.746;19.678;2022-11-15T04:34:19;335.75;;;97.28;;
42978;SDS011;28616;44.746;19.678;2022-11-15T04:36:44;320.92;;;92.97;;
42978;SDS011;28616;44.746;19.678;2022-11-15T04:39:28;320.63;;;92.30;;
42978;SDS011;28616;44.746;19.678;2022-11-15T04:41:54;312.83;;;94.70;;
42978;SDS011;28616;44.746;19.678;2022-11-15T04:44:20;311.08;;;97.20;;
42978;SDS011;28616;44.746;19.678;2022-11-15T04:46:46;318.17;;;95.93;;
42978;SDS011;28616;44.746;19.678;2022-11-15T04:49:11;324.15;;;94.47;;
42978;SDS011;28616;44.746;19.678;2022-11-15T04:51:37;339.33;;;95.20;;
42978;SDS011;28616;44.746;19.678;2022-11-15T04:54:03;326.67;;;95.93;;
42978;SDS011;28616;44.746;19.678;2022-11-15T04:56:29;306.27;;;91.13;;
42978;SDS011;28616;44.746;19.678;2022-11-15T04:58:54;351.75;;;93.38;;
42978;SDS011;28616;44.746;19.678;2022-11-15T05:01:20;294.75;;;95.05;;
42978;SDS011;28616;44.746;19.678;2022-11-15T05:03:46;310.55;;;94.15;;
42978;SDS011;28616;44.746;19.678;2022-11-15T05:06:30;293.63;;;94.15;;
42978;SDS011;28616;44.746;19.678;2022-11-15T05:08:56;284.50;;;92.43;;
42978;SDS011;28616;44.746;19.678;2022-11-15T05:11:22;301.40;;;92.30;;
42978;SDS011;28616;44.746;19.678;2022-11-15T05:13:48;308.15;;;91.10;;
42978;SDS011;28616;44.746;19.678;2022-11-15T05:16:14;280.35;;;90.47;;
42978;SDS011;28616;44.746;19.678;2022-11-15T05:18:40;315.95;;;100.88;;
42978;SDS011;28616;44.746;19.678;2022-11-15T05:21:09;344.70;;;112.20;;
42978;SDS011;28616;44.746;19.678;2022-11-15T05:23:37;332.45;;;104.30;;
42978;SDS011;28616;44.746;19.678;2022-11-15T05:26:04;319.80;;;96.97;;
42978;SDS011;28616;44.746;19.678;2022-11-15T05:28:31;318.45;;;97.80;;
42978;SDS011;28616;44.746;19.678;2022-11-15T05:31:01;293.65;;;93.70;;
42978;SDS011;28616;44.746;19.678;2022-11-15T05:33:31;271.25;;;93.55;;
42978;SDS011;28616;44.746;19.678;2022-11-15T05:38:32;302.65;;;106.22;;
42978;SDS011;28616;44.746;19.678;2022-11-15T05:40:59;314.13;;;107.07;;
42978;SDS011;28616;44.746;19.678;2022-11-15T05:43:26;283.38;;;103.70;;
42978;SDS011;28616;44.746;19.678;2022-11-15T05:45:53;286.35;;;100.40;;
42978;SDS011;28616;44.746;19.678;2022-11-15T05:48:18;323.60;;;112.63;;
42978;SDS011;28616;44.746;19.678;2022-11-15T05:50:45;320.13;;;103.05;;
42978;SDS011;28616;44.746;19.678;2022-11-15T05:53:12;342.85;;;111.75;;
42978;SDS011;28616;44.746;19.678;2022-11-15T05:55:41;365.60;;;123.40;;
42978;SDS011;28616;44.746;19.678;2022-11-15T05:58:07;339.05;;;104.82;;
42978;SDS011;28616;44.746;19.678;2022-11-15T06:00:33;355.27;;;110.13;;
42978;SDS011;28616;44.746;19.678;2022-11-15T06:02:59;316.35;;;109.28;;
42978;SDS011;28616;44.746;19.678;2022-11-15T06:05:25;317.80;;;105.82;;
42978;SDS011;28616;44.746;19.678;2022-11-15T06:07:50;324.17;;;109.78;;
42978;SDS011;28616;44.746;19.678;2022-11-15T06:10:16;327.42;;;106.45;;
42978;SDS011;28616;44.746;19.678;2022-11-15T06:12:42;313.30;;;102.85;;
42978;SDS011;28616;44.746;19.678;2022-11-15T06:15:08;313.92;;;100.50;;
42978;SDS011;28616;44.746;19.678;2022-11-15T06:17:34;281.08;;;92.60;;
42978;SDS011;28616;44.746;19.678;2022-11-15T06:20:00;305.95;;;96.72;;
42978;SDS011;28616;44.746;19.678;2022-11-15T06:22:25;298.23;;;92.90;;
42978;SDS011;28616;44.746;19.678;2022-11-15T06:24:51;305.90;;;101.10;;
42978;SDS011;28616;44.746;19.678;2022-11-15T06:27:17;307.98;;;95.30;;
42978;SDS011;28616;44.746;19.678;2022-11-15T06:29:43;302.83;;;93.95;;
42978;SDS011;28616;44.746;19.678;2022-11-15T06:32:09;293.85;;;93.03;;
42978;SDS011;28616;44.746;19.678;2022-11-15T06:34:34;288.20;;;98.68;;
42978;SDS011;28616;44.746;19.678;2022-11-15T06:37:01;309.83;;;98.28;;
42978;SDS011;28616;44.746;19.678;2022-11-15T06:39:27;273.90;;;91.03;;
42978;SDS011;28616;44.746;19.678;2022-11-15T06:41:53;264.52;;;90.13;;
42978;SDS011;28616;44.746;19.678;2022-11-15T06:44:19;296.13;;;91.10;;
42978;SDS011;28616;44.746;19.678;2022-11-15T06:46:45;362.70;;;94.60;;
42978;SDS011;28616;44.746;19.678;2022-11-15T06:49:10;257.40;;;88.43;;
42978;SDS011;28616;44.746;19.678;2022-11-15T06:51:36;305.55;;;90.65;;
42978;SDS011;28616;44.746;19.678;2022-11-15T06:54:04;283.63;;;95.28;;
42978;SDS011;28616;44.746;19.678;2022-11-15T06:56:34;296.90;;;97.50;;
42978;SDS011;28616;44.746;19.678;2022-11-15T06:59:00;291.27;;;97.03;;
42978;SDS011;28616;44.746;19.678;2022-11-15T07:01:26;305.67;;;106.90;;
42978;SDS011;28616;44.746;19.678;2022-11-15T07:03:52;334.27;;;109.88;;
42978;SDS011;28616;44.746;19.678;2022-11-15T07:06:17;410.17;;;113.80;;
42978;SDS011;28616;44.746;19.678;2022-11-15T07:08:43;382.55;;;111.05;;
42978;SDS011;28616;44.746;19.678;2022-11-15T07:11:10;338.05;;;114.07;;
42978;SDS011;28616;44.746;19.678;2022-11-15T07:13:36;388.77;;;115.47;;
42978;SDS011;28616;44.746;19.678;2022-11-15T07:16:06;387.73;;;116.38;;
42978;SDS011;28616;44.746;19.678;2022-11-15T07:18:34;369.08;;;116.18;;
42978;SDS011;28616;44.746;19.678;2022-11-15T07:21:02;417.95;;;120.00;;
42978;SDS011;28616;44.746;19.678;2022-11-15T07:23:28;329.67;;;119.03;;
42978;SDS011;28616;44.746;19.678;2022-11-15T07:25:56;299.85;;;107.63;;
42978;SDS011;28616;44.746;19.678;2022-11-15T07:28:23;304.88;;;106.50;;
42978;SDS011;28616;44.746;19.678;2022-11-15T07:30:50;317.15;;;107.53;;
42978;SDS011;28616;44.746;19.678;2022-11-15T07:33:15;294.50;;;103.95;;
42978;SDS011;28616;44.746;19.678;2022-11-15T07:35:41;286.17;;;106.40;;
42978;SDS011;28616;44.746;19.678;2022-11-15T07:38:08;280.48;;;105.90;;
42978;SDS011;28616;44.746;19.678;2022-11-15T07:40:34;290.92;;;104.47;;
42978;SDS011;28616;44.746;19.678;2022-11-15T07:43:06;289.92;;;108.00;;
42978;SDS011;28616;44.746;19.678;2022-11-15T07:45:33;326.17;;;122.35;;
42978;SDS011;28616;44.746;19.678;2022-11-15T07:47:59;311.92;;;121.68;;
42978;SDS011;28616;44.746;19.678;2022-11-15T07:50:26;274.70;;;105.97;;
42978;SDS011;28616;44.746;19.678;2022-11-15T07:52:56;257.10;;;100.30;;
42978;SDS011;28616;44.746;19.678;2022-11-15T07:55:24;253.20;;;96.03;;
42978;SDS011;28616;44.746;19.678;2022-11-15T07:57:52;245.25;;;96.05;;
42978;SDS011;28616;44.746;19.678;2022-11-15T08:00:18;252.65;;;104.07;;
42978;SDS011;28616;44.746;19.678;2022-11-15T08:02:45;276.23;;;108.15;;
42978;SDS011;28616;44.746;19.678;2022-11-15T08:05:11;287.02;;;108.00;;
42978;SDS011;28616;44.746;19.678;2022-11-15T08:07:37;267.42;;;105.78;;
42978;SDS011;28616;44.746;19.678;2022-11-15T08:10:03;276.63;;;109.53;;
42978;SDS011;28616;44.746;19.678;2022-11-15T08:12:31;255.73;;;101.78;;
42978;SDS011;28616;44.746;19.678;2022-11-15T08:14:56;247.68;;;98.85;;
42978;SDS011;28616;44.746;19.678;2022-11-15T08:17:23;249.20;;;104.57;;
42978;SDS011;28616;44.746;19.678;2022-11-15T08:19:49;254.95;;;100.85;;
42978;SDS011;28616;44.746;19.678;2022-11-15T08:22:15;273.52;;;110.95;;
42978;SDS011;28616;44.746;19.678;2022-11-15T08:24:41;281.98;;;112.30;;
42978;SDS011;28616;44.746;19.678;2022-11-15T08:27:06;270.30;;;107.75;;
42978;SDS011;28616;44.746;19.678;2022-11-15T08:29:40;258.17;;;105.03;;
42978;SDS011;28616;44.746;19.678;2022-11-15T08:32:07;260.42;;;105.18;;
42978;SDS011;28616;44.746;19.678;2022-11-15T08:34:33;284.35;;;112.25;;
42978;SDS011;28616;44.746;19.678;2022-11-15T08:36:59;292.63;;;117.70;;
42978;SDS011;28616;44.746;19.678;2022-11-15T08:39:24;271.67;;;113.40;;
42978;SDS011;28616;44.746;19.678;2022-11-15T08:41:50;258.23;;;101.43;;
42978;SDS011;28616;44.746;19.678;2022-11-15T08:44:16;267.90;;;104.13;;
42978;SDS011;28616;44.746;19.678;2022-11-15T08:46:41;268.25;;;111.88;;
42978;SDS011;28616;44.746;19.678;2022-11-15T08:49:07;282.67;;;110.35;;
42978;SDS011;28616;44.746;19.678;2022-11-15T08:51:33;277.38;;;107.50;;
42978;SDS011;28616;44.746;19.678;2022-11-15T08:53:58;282.33;;;113.75;;
42978;SDS011;28616;44.746;19.678;2022-11-15T08:56:24;285.17;;;109.68;;
42978;SDS011;28616;44.746;19.678;2022-11-15T08:58:50;273.77;;;106.05;;
42978;SDS011;28616;44.746;19.678;2022-11-15T09:01:16;259.73;;;104.18;;
42978;SDS011;28616;44.746;19.678;2022-11-15T09:03:43;283.67;;;111.45;;
42978;SDS011;28616;44.746;19.678;2022-11-15T09:06:09;266.50;;;104.07;;
42978;SDS011;28616;44.746;19.678;2022-11-15T09:08:35;259.67;;;100.40;;
42978;SDS011;28616;44.746;19.678;2022-11-15T09:11:04;266.58;;;103.47;;
42978;SDS011;28616;44.746;19.678;2022-11-15T09:13:31;243.70;;;98.28;;
42978;SDS011;28616;44.746;19.678;2022-11-15T09:15:57;246.32;;;99.85;;
42978;SDS011;28616;44.746;19.678;2022-11-15T09:18:24;260.27;;;105.68;;
42978;SDS011;28616;44.746;19.678;2022-11-15T09:20:50;238.80;;;101.70;;
42978;SDS011;28616;44.746;19.678;2022-11-15T09:23:15;227.48;;;96.60;;
42978;SDS011;28616;44.746;19.678;2022-11-15T09:25:41;222.05;;;89.40;;
42978;SDS011;28616;44.746;19.678;2022-11-15T09:28:07;257.13;;;109.35;;
42978;SDS011;28616;44.746;19.678;2022-11-15T09:30:33;225.05;;;92.88;;
42978;SDS011;28616;44.746;19.678;2022-11-15T09:33:05;338.65;;;166.50;;
42978;SDS011;28616;44.746;19.678;2022-11-15T09:35:32;231.63;;;102.68;;
42978;SDS011;28616;44.746;19.678;2022-11-15T09:37:58;213.02;;;91.20;;
42978;SDS011;28616;44.746;19.678;2022-11-15T09:40:24;216.55;;;94.60;;
42978;SDS011;28616;44.746;19.678;2022-11-15T09:45:31;206.40;;;87.03;;
42978;SDS011;28616;44.746;19.678;2022-11-15T09:56:28;233.70;;;95.95;;
42978;SDS011;28616;44.746;19.678;2022-11-15T10:04:32;244.45;;;99.45;;
42978;SDS011;28616;44.746;19.678;2022-11-15T10:09:43;258.05;;;101.38;;
42978;SDS011;28616;44.746;19.678;2022-11-15T10:12:20;248.02;;;104.75;;
42978;SDS011;28616;44.746;19.678;2022-11-15T10:14:46;269.52;;;113.25;;
42978;SDS011;28616;44.746;19.678;2022-11-15T10:20:12;261.92;;;109.53;;
42978;SDS011;28616;44.746;19.678;2022-11-15T10:22:41;260.20;;;113.85;;
42978;SDS011;28616;44.746;19.678;2022-11-15T10:27:38;275.75;;;115.85;;
42978;SDS011;28616;44.746;19.678;2022-11-15T10:30:10;265.13;;;107.43;;
42978;SDS011;28616;44.746;19.678;2022-11-15T10:32:38;267.08;;;108.65;;
42978;SDS011;28616;44.746;19.678;2022-11-15T10:35:20;262.30;;;107.53;;
42978;SDS011;28616;44.746;19.678;2022-11-15T10:37:49;268.73;;;105.85;;
42978;SDS011;28616;44.746;19.678;2022-11-15T10:40:16;266.58;;;105.07;;
42978;SDS011;28616;44.746;19.678;2022-11-15T10:42:46;258.67;;;106.90;;
42978;SDS011;28616;44.746;19.678;2022-11-15T10:45:22;268.42;;;106.78;;
42978;SDS011;28616;44.746;19.678;2022-11-15T10:47:50;270.65;;;107.38;;
42978;SDS011;28616;44.746;19.678;2022-11-15T10:50:30;265.90;;;106.63;;
42978;SDS011;28616;44.746;19.678;2022-11-15T10:52:57;235.55;;;101.70;;
42978;SDS011;28616;44.746;19.678;2022-11-15T10:55:29;252.57;;;102.88;;
42978;SDS011;28616;44.746;19.678;2022-11-15T10:58:04;233.73;;;92.32;;
42978;SDS011;28616;44.746;19.678;2022-11-15T11:00:44;229.98;;;93.15;;
42978;SDS011;28616;44.746;19.678;2022-11-15T11:03:28;246.15;;;103.90;;
42978;SDS011;28616;44.746;19.678;2022-11-15T11:06:06;262.17;;;109.47;;
42978;SDS011;28616;44.746;19.678;2022-11-15T11:08:41;250.45;;;104.60;;
42978;SDS011;28616;44.746;19.678;2022-11-15T11:11:45;252.55;;;103.05;;
42978;SDS011;28616;44.746;19.678;2022-11-15T11:14:22;245.23;;;104.32;;
42978;SDS011;28616;44.746;19.678;2022-11-15T11:17:32;222.13;;;95.97;;
42978;SDS011;28616;44.746;19.678;2022-11-15T11:25:34;246.43;;;105.00;;
42978;SDS011;28616;44.746;19.678;2022-11-15T11:39:18;231.23;;;98.93;;
42978;SDS011;28616;44.746;19.678;2022-11-15T11:51:05;289.67;;;114.70;;
42978;SDS011;28616;44.746;19.678;2022-11-15T11:53:39;225.93;;;97.15;;
42978;SDS011;28616;44.746;19.678;2022-11-15T11:56:16;232.45;;;105.47;;
42978;SDS011;28616;44.746;19.678;2022-11-15T11:58:47;253.60;;;128.25;;
42978;SDS011;28616;44.746;19.678;2022-11-15T12:03:59;195.57;;;92.38;;
42978;SDS011;28616;44.746;19.678;2022-11-15T12:06:56;218.82;;;100.68;;
42978;SDS011;28616;44.746;19.678;2022-11-15T12:09:36;229.20;;;103.82;;
42978;SDS011;28616;44.746;19.678;2022-11-15T12:12:09;223.00;;;102.22;;
42978;SDS011;28616;44.746;19.678;2022-11-15T12:14:54;220.18;;;102.05;;
42978;SDS011;28616;44.746;19.678;2022-11-15T12:17:28;225.18;;;105.13;;
42978;SDS011;28616;44.746;19.678;2022-11-15T12:19:59;209.73;;;100.47;;
42978;SDS011;28616;44.746;19.678;2022-11-15T12:22:42;222.00;;;101.97;;
42978;SDS011;28616;44.746;19.678;2022-11-15T12:25:29;215.88;;;100.30;;
42978;SDS011;28616;44.746;19.678;2022-11-15T12:27:57;231.80;;;106.50;;
42978;SDS011;28616;44.746;19.678;2022-11-15T12:30:51;230.27;;;103.55;;
42978;SDS011;28616;44.746;19.678;2022-11-15T12:33:43;218.18;;;101.88;;
42978;SDS011;28616;44.746;19.678;2022-11-15T12:43:52;212.45;;;99.93;;
42978;SDS011;28616;44.746;19.678;2022-11-15T12:48:48;254.23;;;132.38;;
42978;SDS011;28616;44.746;19.678;2022-11-15T12:51:17;225.43;;;115.32;;
42978;SDS011;28616;44.746;19.678;2022-11-15T12:53:45;240.40;;;115.63;;
42978;SDS011;28616;44.746;19.678;2022-11-15T12:58:56;210.80;;;97.95;;
42978;SDS011;28616;44.746;19.678;2022-11-15T13:04:09;230.38;;;105.72;;
42978;SDS011;28616;44.746;19.678;2022-11-15T13:06:48;233.05;;;105.05;;
42978;SDS011;28616;44.746;19.678;2022-11-15T13:12:01;245.00;;;111.97;;
42978;SDS011;28616;44.746;19.678;2022-11-15T13:14:47;257.77;;;118.40;;
42978;SDS011;28616;44.746;19.678;2022-11-15T13:17:33;238.98;;;107.47;;
42978;SDS011;28616;44.746;19.678;2022-11-15T13:30:41;251.93;;;113.10;;
42978;SDS011;28616;44.746;19.678;2022-11-15T13:33:24;251.68;;;111.57;;
42978;SDS011;28616;44.746;19.678;2022-11-15T13:38:33;275.40;;;114.68;;
42978;SDS011;28616;44.746;19.678;2022-11-15T13:41:19;276.53;;;121.00;;
42978;SDS011;28616;44.746;19.678;2022-11-15T13:43:47;289.08;;;129.55;;
42978;SDS011;28616;44.746;19.678;2022-11-15T13:48:54;270.08;;;123.88;;
42978;SDS011;28616;44.746;19.678;2022-11-15T13:57:04;276.85;;;119.60;;
42978;SDS011;28616;44.746;19.678;2022-11-15T13:59:44;291.48;;;121.55;;
42978;SDS011;28616;44.746;19.678;2022-11-15T14:02:13;283.33;;;119.80;;
42978;SDS011;28616;44.746;19.678;2022-11-15T14:07:18;286.10;;;121.78;;
42978;SDS011;28616;44.746;19.678;2022-11-15T14:09:46;265.17;;;115.30;;
42978;SDS011;28616;44.746;19.678;2022-11-15T14:14:58;291.65;;;123.97;;
42978;SDS011;28616;44.746;19.678;2022-11-15T14:19:53;301.52;;;133.07;;
42978;SDS011;28616;44.746;19.678;2022-11-15T14:22:20;354.63;;;152.23;;
42978;SDS011;28616;44.746;19.678;2022-11-15T14:25:07;341.73;;;150.57;;
42978;SDS011;28616;44.746;19.678;2022-11-15T14:27:44;304.73;;;126.88;;
42978;SDS011;28616;44.746;19.678;2022-11-15T14:30:28;330.83;;;141.43;;
42978;SDS011;28616;44.746;19.678;2022-11-15T14:32:54;357.83;;;154.55;;
42978;SDS011;28616;44.746;19.678;2022-11-15T14:35:21;389.58;;;163.32;;
42978;SDS011;28616;44.746;19.678;2022-11-15T14:37:48;393.05;;;161.10;;
42978;SDS011;28616;44.746;19.678;2022-11-15T14:40:18;354.55;;;134.43;;
42978;SDS011;28616;44.746;19.678;2022-11-15T14:42:46;354.70;;;135.83;;
42978;SDS011;28616;44.746;19.678;2022-11-15T14:45:19;341.33;;;133.40;;
42978;SDS011;28616;44.746;19.678;2022-11-15T14:47:46;346.38;;;130.13;;
42978;SDS011;28616;44.746;19.678;2022-11-15T14:50:16;339.92;;;133.32;;
42978;SDS011;28616;44.746;19.678;2022-11-15T14:52:44;309.93;;;121.37;;
42978;SDS011;28616;44.746;19.678;2022-11-15T15:00:08;398.38;;;161.20;;
42978;SDS011;28616;44.746;19.678;2022-11-15T15:02:35;397.10;;;166.88;;
42978;SDS011;28616;44.746;19.678;2022-11-15T15:05:01;435.10;;;177.07;;
42978;SDS011;28616;44.746;19.678;2022-11-15T15:07:38;464.83;;;229.93;;
42978;SDS011;28616;44.746;19.678;2022-11-15T15:10:04;455.02;;;205.20;;
42978;SDS011;28616;44.746;19.678;2022-11-15T15:12:29;429.05;;;166.50;;
42978;SDS011;28616;44.746;19.678;2022-11-15T15:14:55;413.70;;;166.10;;
42978;SDS011;28616;44.746;19.678;2022-11-15T15:17:21;418.25;;;162.57;;
42978;SDS011;28616;44.746;19.678;2022-11-15T15:19:47;411.60;;;154.48;;
42978;SDS011;28616;44.746;19.678;2022-11-15T15:22:14;381.80;;;139.57;;
42978;SDS011;28616;44.746;19.678;2022-11-15T15:24:42;391.85;;;143.65;;
42978;SDS011;28616;44.746;19.678;2022-11-15T15:27:09;416.98;;;155.32;;
42978;SDS011;28616;44.746;19.678;2022-11-15T15:29:35;412.45;;;148.95;;
42978;SDS011;28616;44.746;19.678;2022-11-15T15:32:01;408.75;;;148.30;;
42978;SDS011;28616;44.746;19.678;2022-11-15T15:34:27;448.15;;;180.45;;
42978;SDS011;28616;44.746;19.678;2022-11-15T15:39:49;381.55;;;141.45;;
42978;SDS011;28616;44.746;19.678;2022-11-15T15:42:23;456.50;;;169.90;;
42978;SDS011;28616;44.746;19.678;2022-11-15T15:44:49;426.23;;;161.65;;
42978;SDS011;28616;44.746;19.678;2022-11-15T15:47:17;421.00;;;145.82;;
42978;SDS011;28616;44.746;19.678;2022-11-15T15:49:45;424.63;;;151.18;;
42978;SDS011;28616;44.746;19.678;2022-11-15T15:52:11;446.52;;;152.65;;
42978;SDS011;28616;44.746;19.678;2022-11-15T15:54:37;471.17;;;170.48;;
42978;SDS011;28616;44.746;19.678;2022-11-15T15:57:04;463.00;;;159.68;;
42978;SDS011;28616;44.746;19.678;2022-11-15T15:59:31;486.55;;;163.30;;
42978;SDS011;28616;44.746;19.678;2022-11-15T16:01:57;475.35;;;155.20;;
42978;SDS011;28616;44.746;19.678;2022-11-15T16:04:23;483.48;;;169.63;;
42978;SDS011;28616;44.746;19.678;2022-11-15T16:06:49;475.15;;;172.88;;
42978;SDS011;28616;44.746;19.678;2022-11-15T16:09:18;523.67;;;181.32;;
42978;SDS011;28616;44.746;19.678;2022-11-15T16:12:04;503.27;;;180.77;;
42978;SDS011;28616;44.746;19.678;2022-11-15T16:14:30;527.05;;;183.45;;
42978;SDS011;28616;44.746;19.678;2022-11-15T16:16:57;503.50;;;153.77;;
42978;SDS011;28616;44.746;19.678;2022-11-15T16:19:22;514.20;;;163.80;;
42978;SDS011;28616;44.746;19.678;2022-11-15T16:21:48;572.60;;;176.82;;
42978;SDS011;28616;44.746;19.678;2022-11-15T16:24:14;599.65;;;188.77;;
42978;SDS011;28616;44.746;19.678;2022-11-15T16:26:40;681.85;;;178.38;;